Time;durP1;ratioP1;P1;durP2;ratioP2;P2;SDS_P1;SDS_P2;PMS_P1;PMS_P2;Temp;Humidity;BMP_temperature;BMP_pressure;BME280_temperature;BME280_humidity;BME280_pressure;Samples;Min_cycle;Max_cycle;Signal;HPM_P1;HPM_P2
2022/04/27 00:01:14;;;;;;;;;;;;;;;10.27;69.74;98194.63;4964233;28;19981;-74
2022/04/27 00:03:44;;;;;;;;;;;;;;;10.39;69.75;98209.31;4967969;28;19930;-74
2022/04/27 00:06:12;;;;;;;;;;;;;;;10.41;69.29;98201.66;4953800;28;20138;-75
2022/04/27 00:08:40;;;;;;;;;;;;;;;10.32;69.53;98206.19;4969836;28;19930;-74
2022/04/27 00:11:09;;;;;;;;;;;;;;;10.47;69.27;98208.59;4969856;28;19965;-74
2022/04/27 00:13:36;;;;;;;;;;;;;;;10.22;69.64;98198.19;4962439;28;19930;-74
2022/04/27 00:16:07;;;;;;;;;;;;;;;10.21;69.90;98202.81;4962555;28;19977;-74
2022/04/27 00:21:28;;;;;;;;;;;;;;;10.50;69.22;98207.19;4960006;28;19926;-74
2022/04/27 00:23:56;;;;;;;;;;;;;;;10.47;68.41;98199.63;4965716;28;19930;-74
2022/04/27 00:26:24;;;;;;;;;;;;;;;10.34;68.56;98198.56;4952921;28;19934;-74
2022/04/27 00:28:53;;;;;;;;;;;;;;;10.33;68.72;98198.84;4965406;28;20385;-74
2022/04/27 00:31:21;;;;;;;;;;;;;;;10.16;69.36;98202.94;4964008;28;20393;-74
2022/04/27 00:33:49;;;;;;;;;;;;;;;10.20;69.36;98195.00;4968592;28;19969;-73
2022/04/27 00:36:17;;;;;;;;;;;;;;;10.23;69.71;98202.56;4975696;28;19973;-74
2022/04/27 00:38:46;;;;;;;;;;;;;;;10.15;69.78;98197.81;4962947;28;19938;-74
2022/04/27 00:41:14;;;;;;;;;;;;;;;10.14;70.21;98198.91;4954674;28;19933;-73
2022/04/27 00:43:42;;;;;;;;;;;;;;;10.23;70.11;98199.84;4964377;28;19927;-74
2022/04/27 00:46:10;;;;;;;;;;;;;;;10.24;70.23;98201.47;4963551;28;19926;-74
2022/04/27 00:48:39;;;;;;;;;;;;;;;10.28;69.94;98202.47;4956155;28;21129;-74
2022/04/27 00:54:01;;;;;;;;;;;;;;;10.04;70.78;98205.34;4965282;28;19973;-74
2022/04/27 00:56:29;;;;;;;;;;;;;;;10.22;69.91;98209.06;4970414;28;19926;-73
2022/04/27 00:58:56;;;;;;;;;;;;;;;10.31;69.73;98204.56;4970488;28;19933;-73
2022/04/27 01:01:24;;;;;;;;;;;;;;;10.29;69.72;98211.44;4983043;28;20284;-73
2022/04/27 01:03:53;;;;;;;;;;;;;;;10.43;69.61;98213.00;4987520;28;19930;-74
2022/04/27 01:06:22;;;;;;;;;;;;;;;10.52;69.07;98220.47;4987651;28;19930;-74
2022/04/27 01:09:16;;;;;;;;;;;;;;;10.43;69.66;98220.34;4982409;28;19940;-73
2022/04/27 01:11:44;;;;;;;;;;;;;;;10.51;68.82;98221.59;4982572;28;19933;-73
2022/04/27 01:14:12;;;;;;;;;;;;;;;10.56;68.86;98229.63;4954820;28;20156;-73
2022/04/27 01:16:40;;;;;;;;;;;;;;;10.55;68.63;98222.59;4976351;28;19930;-72
2022/04/27 01:22:01;;;;;;;;;;;;;;;10.57;68.29;98225.78;4980339;28;20295;-75
2022/04/27 01:24:32;;;;;;;;;;;;;;;10.43;69.05;98221.16;4969809;28;19926;-76
2022/04/27 01:27:00;;;;;;;;;;;;;;;10.53;68.78;98224.78;4970872;28;19981;-73
2022/04/27 01:29:28;;;;;;;;;;;;;;;10.38;68.44;98231.31;4957933;28;19941;-73
2022/04/27 01:31:57;;;;;;;;;;;;;;;10.41;69.19;98228.81;4980115;28;20060;-73
2022/04/27 01:34:25;;;;;;;;;;;;;;;10.45;69.33;98227.13;4959334;28;19932;-74
2022/04/27 01:36:54;;;;;;;;;;;;;;;10.52;68.46;98223.19;4966655;28;19933;-73
2022/04/27 01:39:24;;;;;;;;;;;;;;;10.43;68.48;98231.22;4968293;28;20357;-74
2022/04/27 01:41:52;;;;;;;;;;;;;;;10.37;68.75;98233.22;4971775;28;19980;-73
2022/04/27 01:44:20;;;;;;;;;;;;;;;10.35;69.04;98240.09;4983336;28;19980;-73
2022/04/27 01:46:48;;;;;;;;;;;;;;;10.12;69.13;98239.13;4986110;28;19932;-73
2022/04/27 01:49:16;;;;;;;;;;;;;;;9.84;69.98;98244.50;4972156;28;19932;-74
2022/04/27 01:54:31;;;;;;;;;;;;;;;9.77;70.75;98249.53;4971240;28;19926;-74
2022/04/27 01:56:59;;;;;;;;;;;;;;;9.76;70.76;98255.25;4983021;28;19932;-74
2022/04/27 01:59:27;;;;;;;;;;;;;;;9.85;70.75;98248.81;4985859;28;19934;-73
2022/04/27 02:01:57;;;;;;;;;;;;;;;9.85;69.92;98243.41;4971512;28;19933;-73
2022/04/27 02:07:20;;;;;;;;;;;;;;;9.81;70.63;98247.81;4956035;28;19989;-73
2022/04/27 02:09:50;;;;;;;;;;;;;;;9.87;71.00;98237.69;4971617;28;20022;-73
2022/04/27 02:12:18;;;;;;;;;;;;;;;10.04;70.34;98250.69;4958236;28;19930;-72
2022/04/27 02:15:03;;;;;;;;;;;;;;;10.25;69.62;98256.56;4986062;28;19975;-73
2022/04/27 02:17:32;;;;;;;;;;;;;;;10.10;69.99;98254.91;4970030;28;20310;-75
2022/04/27 02:20:29;;;;;;;;;;;;;;;9.99;69.92;98243.44;4957701;28;19930;-75
2022/04/27 02:22:57;;;;;;;;;;;;;;;10.04;69.87;98250.69;4989503;28;19926;-75
2022/04/27 02:25:26;;;;;;;;;;;;;;;10.04;69.95;98247.97;4991864;28;19930;-75
2022/04/27 02:28:19;;;;;;;;;;;;;;;10.10;69.62;98249.47;4962441;28;19933;-75
2022/04/27 02:30:47;;;;;;;;;;;;;;;10.09;69.54;98256.81;4991940;28;20048;-72
2022/04/27 02:33:15;;;;;;;;;;;;;;;9.97;69.56;98251.88;4961693;28;19926;-73
2022/04/27 02:35:43;;;;;;;;;;;;;;;10.04;69.18;98256.13;4963019;28;19930;-75
2022/04/27 02:38:11;;;;;;;;;;;;;;;10.15;69.19;98257.53;4987184;28;20360;-75
2022/04/27 02:40:40;;;;;;;;;;;;;;;10.39;68.59;98255.47;4961567;28;19926;-73
2022/04/27 02:43:07;;;;;;;;;;;;;;;10.38;68.52;98262.00;4968125;28;19937;-75
2022/04/27 02:45:36;;;;;;;;;;;;;;;10.30;68.53;98259.19;4966445;28;19934;-74
2022/04/27 02:48:04;;;;;;;;;;;;;;;10.18;68.87;98262.38;4972960;28;19988;-75
2022/04/27 02:53:19;;;;;;;;;;;;;;;10.16;69.44;98264.56;4991991;28;19930;-73
2022/04/27 02:55:48;;;;;;;;;;;;;;;10.01;69.68;98272.97;4950067;28;19945;-72
2022/04/27 02:58:17;;;;;;;;;;;;;;;9.83;70.39;98272.75;4967169;28;19956;-72
2022/04/27 03:00:46;;;;;;;;;;;;;;;10.01;69.43;98276.50;4945143;28;19926;-74
2022/04/27 03:03:16;;;;;;;;;;;;;;;9.95;70.09;98280.41;4964469;28;19926;-73
2022/04/27 03:05:45;;;;;;;;;;;;;;;10.00;69.87;98282.22;4965078;28;20022;-74
2022/04/27 03:08:15;;;;;;;;;;;;;;;9.97;70.72;98283.66;4951796;28;19984;-74
2022/04/27 03:10:51;;;;;;;;;;;;;;;10.08;69.49;98276.13;4969916;28;19927;-74
2022/04/27 03:13:24;;;;;;;;;;;;;;;10.06;69.44;98289.97;4965723;28;20399;-74
2022/04/27 03:16:02;;;;;;;;;;;;;;;10.13;69.27;98295.06;4965086;28;19933;-74
2022/04/27 03:21:24;;;;;;;;;;;;;;;10.17;69.38;98290.59;4962910;28;19930;-74
2022/04/27 03:23:53;;;;;;;;;;;;;;;10.08;68.51;98300.56;4969059;28;20361;-74
2022/04/27 03:26:23;;;;;;;;;;;;;;;10.01;68.72;98295.50;4959886;28;19926;-74
2022/04/27 03:28:52;;;;;;;;;;;;;;;9.89;68.52;98292.47;4964422;28;19932;-74
2022/04/27 03:31:19;;;;;;;;;;;;;;;9.83;68.99;98299.88;4968448;28;19933;-74
2022/04/27 03:33:49;;;;;;;;;;;;;;;10.13;68.81;98297.75;4970630;28;19930;-74
2022/04/27 03:36:17;;;;;;;;;;;;;;;10.12;69.29;98298.84;4967326;28;19949;-74
2022/04/27 03:38:48;;;;;;;;;;;;;;;9.88;70.19;98297.09;4958159;28;20172;-76
2022/04/27 03:41:17;;;;;;;;;;;;;;;9.89;70.07;98304.13;4968108;28;19927;-76
2022/04/27 03:43:47;;;;;;;;;;;;;;;9.86;70.38;98299.31;4956961;28;20369;-76
2022/04/27 03:46:19;;;;;;;;;;;;;;;9.71;69.61;98302.25;4954717;28;20258;-76
2022/04/27 03:49:07;;;;;;;;;;;;;;;9.78;70.27;98299.16;4951363;28;19939;-76
2022/04/27 03:51:35;;;;;;;;;;;;;;;9.82;69.82;98298.28;4961026;28;19982;-76
2022/04/27 03:54:03;;;;;;;;;;;;;;;9.85;69.53;98311.22;4981728;28;19938;-76
2022/04/27 03:56:33;;;;;;;;;;;;;;;9.73;69.63;98308.19;4958820;28;19926;-76
2022/04/27 03:59:04;;;;;;;;;;;;;;;9.75;69.79;98319.56;4965449;28;19927;-76
2022/04/27 04:01:31;;;;;;;;;;;;;;;9.75;69.70;98314.13;4958047;28;19927;-74
2022/04/27 04:04:00;;;;;;;;;;;;;;;9.74;69.68;98317.94;4968699;28;19926;-76
2022/04/27 04:06:28;;;;;;;;;;;;;;;9.68;69.66;98319.13;4944100;28;19926;-74
2022/04/27 04:08:56;;;;;;;;;;;;;;;9.60;70.42;98323.31;4951594;28;20017;-73
2022/04/27 04:11:24;;;;;;;;;;;;;;;9.67;70.26;98318.31;4963525;28;19926;-74
2022/04/27 04:14:09;;;;;;;;;;;;;;;9.62;69.99;98317.59;4964985;28;19937;-72
2022/04/27 04:16:43;;;;;;;;;;;;;;;9.83;69.21;98318.88;4968095;28;19926;-72
2022/04/27 04:19:32;;;;;;;;;;;;;;;9.84;68.79;98328.63;4955075;28;20030;-75
2022/04/27 04:22:19;;;;;;;;;;;;;;;9.78;69.18;98329.81;4961928;28;20618;-75
2022/04/27 04:30:48;;;;;;;;;;;;;;;9.77;68.74;98343.69;4972118;28;19926;-74
2022/04/27 04:33:48;;;;;;;;;;;;;;;10.00;68.00;98341.94;4942074;28;19926;-73
2022/04/27 04:36:17;;;;;;;;;;;;;;;9.92;68.08;98344.25;4967508;28;19961;-76
2022/04/27 04:38:45;;;;;;;;;;;;;;;9.92;68.20;98349.69;4948713;28;20325;-76
2022/04/27 04:41:22;;;;;;;;;;;;;;;9.72;68.73;98352.69;4966463;28;19972;-75
2022/04/27 04:43:54;;;;;;;;;;;;;;;9.68;69.28;98362.53;4972056;28;20340;-74
2022/04/27 04:46:25;;;;;;;;;;;;;;;9.58;69.08;98365.38;4965424;28;20337;-75
2022/04/27 04:49:07;;;;;;;;;;;;;;;9.60;69.41;98368.63;4955311;28;20018;-74
2022/04/27 04:51:46;;;;;;;;;;;;;;;9.70;69.78;98371.19;4966018;28;20460;-72
2022/04/27 04:54:33;;;;;;;;;;;;;;;9.67;69.45;98372.56;4950779;28;19981;-72
2022/04/27 04:57:25;;;;;;;;;;;;;;;9.43;69.71;98377.28;4954411;28;19933;-72
2022/04/27 05:00:09;;;;;;;;;;;;;;;9.32;70.60;98379.31;4965218;28;19930;-73
2022/04/27 05:03:11;;;;;;;;;;;;;;;9.59;70.00;98384.09;4943019;28;19926;-74
2022/04/27 05:05:57;;;;;;;;;;;;;;;9.55;69.82;98387.69;4962949;28;19997;-74
2022/04/27 05:08:43;;;;;;;;;;;;;;;9.63;69.45;98395.16;4937088;28;20349;-73
2022/04/27 05:11:58;;;;;;;;;;;;;;;9.57;70.13;98399.03;4964132;28;20288;-68
2022/04/27 05:14:46;;;;;;;;;;;;;;;9.70;69.53;98415.41;4940862;28;19930;-69
2022/04/27 05:17:33;;;;;;;;;;;;;;;9.82;69.20;98420.38;4960941;28;20033;-68
2022/04/27 05:20:16;;;;;;;;;;;;;;;9.95;68.57;98416.13;4948259;28;20384;-71
2022/04/27 05:22:50;;;;;;;;;;;;;;;9.93;68.38;98424.56;4966874;28;19934;-71
2022/04/27 05:25:39;;;;;;;;;;;;;;;10.05;68.57;98421.41;4962977;28;19973;-69
2022/04/27 05:31:54;;;;;;;;;;;;;;;9.99;68.41;98428.00;4938816;28;19958;-71
2022/04/27 05:31:55;;;;;;;;;;;;;;;10.06;68.52;98427.63;4958071;28;19930;-68
2022/04/27 05:34:44;;;;;;;;;;;;;;;10.13;68.64;98422.66;4968406;28;19934;-69
2022/04/27 05:37:59;;;;;;;;;;;;;;;10.08;68.57;98433.59;4943644;28;19926;-71
2022/04/27 05:40:57;;;;;;;;;;;;;;;9.92;68.83;98436.53;4950754;28;19932;-69
2022/04/27 05:43:50;;;;;;;;;;;;;;;10.05;68.94;98437.69;4962184;28;20154;-72
2022/04/27 05:46:36;;;;;;;;;;;;;;;10.07;68.83;98440.94;4962507;28;20404;-73
2022/04/27 05:49:23;;;;;;;;;;;;;;;9.98;69.69;98448.13;4966860;28;19930;-71
2022/04/27 05:52:09;;;;;;;;;;;;;;;10.16;68.24;98449.19;4965263;28;19934;-80
2022/04/27 05:54:57;;;;;;;;;;;;;;;10.35;68.08;98449.22;4964096;28;19938;-78
2022/04/27 05:57:51;;;;;;;;;;;;;;;10.31;67.52;98459.06;4988930;28;20582;-84
2022/04/27 06:00:30;;;;;;;;;;;;;;;10.41;67.03;98456.16;4990701;28;19937;-82
2022/04/27 06:03:18;;;;;;;;;;;;;;;10.60;67.73;98458.81;4973993;28;20319;-73
2022/04/27 06:05:46;;;;;;;;;;;;;;;10.44;66.72;98453.69;4963997;28;19926;-76
2022/04/27 06:08:18;;;;;;;;;;;;;;;10.65;66.28;98456.84;4988087;28;19925;-75
2022/04/27 06:10:48;;;;;;;;;;;;;;;10.77;66.49;98464.53;4964023;28;19948;-75
2022/04/27 06:13:18;;;;;;;;;;;;;;;10.80;65.11;98463.13;4983887;28;20340;-75
2022/04/27 06:15:54;;;;;;;;;;;;;;;10.93;64.44;98468.59;4964432;28;19930;-76
2022/04/27 06:19:01;;;;;;;;;;;;;;;11.14;64.47;98474.44;4972252;28;19945;-75
2022/04/27 06:21:55;;;;;;;;;;;;;;;11.29;64.70;98465.16;4964547;28;20444;-74
2022/04/27 06:24:26;;;;;;;;;;;;;;;11.18;65.07;98470.00;4975318;28;19937;-74
2022/04/27 06:26:57;;;;;;;;;;;;;;;11.26;63.26;98471.22;4971493;28;19929;-74
2022/04/27 06:29:27;;;;;;;;;;;;;;;11.31;63.07;98479.28;4970589;28;19933;-74
2022/04/27 06:31:54;;;;;;;;;;;;;;;11.58;62.12;98488.56;4970676;28;19929;-74
2022/04/27 06:34:22;;;;;;;;;;;;;;;11.42;63.13;98482.63;4973966;28;19980;-74
2022/04/27 06:36:52;;;;;;;;;;;;;;;11.41;62.18;98481.81;4965759;28;20012;-74
2022/04/27 06:39:32;;;;;;;;;;;;;;;11.52;62.29;98485.13;4974945;28;19927;-74
2022/04/27 06:42:00;;;;;;;;;;;;;;;11.56;62.49;98488.88;4973485;28;19926;-74
2022/04/27 06:44:38;;;;;;;;;;;;;;;11.33;63.70;98493.38;4992256;28;19932;-74
2022/04/27 06:47:33;;;;;;;;;;;;;;;11.21;63.74;98490.38;4988837;28;20016;-74
2022/04/27 06:50:37;;;;;;;;;;;;;;;11.10;62.41;98491.66;4899916;29;19971;-74
2022/04/27 06:53:23;;;;;;;;;;;;;;;11.35;61.87;98491.19;4980055;28;19926;-75
2022/04/27 06:56:24;;;;;;;;;;;;;;;11.51;62.14;98495.22;4924612;28;19941;-76
2022/04/27 06:59:07;;;;;;;;;;;;;;;11.48;61.38;98501.25;4964637;28;19933;-75
2022/04/27 07:01:39;;;;;;;;;;;;;;;11.57;62.39;98497.84;4972421;28;19930;-73
2022/04/27 07:04:11;;;;;;;;;;;;;;;11.71;61.85;98498.63;4988977;28;19931;-73
2022/04/27 07:09:56;;;;;;;;;;;;;;;11.41;62.98;98508.22;4964110;28;20072;-71
2022/04/27 07:12:25;;;;;;;;;;;;;;;11.57;62.86;98508.72;4984336;28;19965;-71
2022/04/27 07:14:54;;;;;;;;;;;;;;;11.41;62.79;98511.75;4986871;28;19951;-71
2022/04/27 07:17:23;;;;;;;;;;;;;;;11.58;62.35;98515.78;4987573;28;20505;-77
2022/04/27 07:19:51;;;;;;;;;;;;;;;11.34;64.02;98521.41;4985273;28;19938;-71
2022/04/27 07:22:19;;;;;;;;;;;;;;;11.49;63.35;98519.19;4989018;28;19932;-71
2022/04/27 07:24:49;;;;;;;;;;;;;;;11.65;62.87;98513.44;4988016;28;20384;-70
2022/04/27 07:27:17;;;;;;;;;;;;;;;11.48;62.58;98514.84;4988120;28;19952;-70
2022/04/27 07:29:44;;;;;;;;;;;;;;;11.36;63.44;98522.72;4970884;28;19929;-71
2022/04/27 07:32:12;;;;;;;;;;;;;;;11.33;62.03;98526.03;4967747;28;20140;-70
2022/04/27 07:34:41;;;;;;;;;;;;;;;11.57;62.89;98519.59;4963410;28;19926;-70
2022/04/27 07:37:10;;;;;;;;;;;;;;;11.50;63.03;98526.25;4986688;28;20400;-70
2022/04/27 07:39:38;;;;;;;;;;;;;;;11.14;63.15;98528.03;4973005;28;19925;-70
2022/04/27 07:42:06;;;;;;;;;;;;;;;11.56;63.30;98535.13;4986513;28;19945;-69
2022/04/27 07:44:34;;;;;;;;;;;;;;;11.78;62.12;98524.34;4988817;28;19926;-70
2022/04/27 07:47:02;;;;;;;;;;;;;;;11.97;61.54;98534.31;4988364;28;19934;-70
2022/04/27 07:49:29;;;;;;;;;;;;;;;12.16;60.49;98531.47;4990037;28;19932;-69
2022/04/27 07:51:59;;;;;;;;;;;;;;;12.23;60.36;98537.28;4986224;28;19980;-70
2022/04/27 07:54:27;;;;;;;;;;;;;;;12.20;60.24;98535.19;4989437;28;20376;-69
2022/04/27 07:56:55;;;;;;;;;;;;;;;11.93;61.14;98534.13;4943274;28;20300;-70
2022/04/27 07:59:23;;;;;;;;;;;;;;;11.92;60.66;98543.38;4953034;28;20055;-70
2022/04/27 08:01:51;;;;;;;;;;;;;;;11.71;62.01;98545.69;4969679;28;19978;-78
2022/04/27 08:04:19;;;;;;;;;;;;;;;11.37;63.70;98546.09;4965253;28;19965;-69
2022/04/27 08:07:16;;;;;;;;;;;;;;;11.57;62.46;98555.78;4967524;28;19934;-70
2022/04/27 08:09:45;;;;;;;;;;;;;;;11.96;62.76;98549.84;4968046;28;19934;-69
2022/04/27 08:12:13;;;;;;;;;;;;;;;12.09;61.86;98559.13;4969252;28;20440;-69
2022/04/27 08:14:41;;;;;;;;;;;;;;;12.39;61.32;98562.28;4951889;28;20353;-69
2022/04/27 08:17:10;;;;;;;;;;;;;;;12.44;61.34;98564.88;4967068;28;19926;-70
2022/04/27 08:19:40;;;;;;;;;;;;;;;12.23;61.65;98569.97;4968147;28;19973;-70
2022/04/27 08:22:11;;;;;;;;;;;;;;;12.12;60.51;98571.31;4948645;28;19933;-69
2022/04/27 08:24:40;;;;;;;;;;;;;;;11.97;60.68;98562.34;4967652;28;19926;-69
2022/04/27 08:27:09;;;;;;;;;;;;;;;12.13;61.00;98559.31;4965950;28;19927;-70
2022/04/27 08:29:38;;;;;;;;;;;;;;;12.17;60.86;98577.47;4943873;28;19926;-69
2022/04/27 08:32:06;;;;;;;;;;;;;;;12.16;60.89;98572.31;4967767;28;20377;-69
2022/04/27 08:34:34;;;;;;;;;;;;;;;12.18;60.42;98578.25;4971206;28;19961;-70
2022/04/27 08:37:02;;;;;;;;;;;;;;;12.21;60.79;98583.91;4963060;28;19966;-70
2022/04/27 08:39:30;;;;;;;;;;;;;;;12.45;61.06;98583.66;4940676;28;20366;-69
2022/04/27 08:41:58;;;;;;;;;;;;;;;12.32;60.45;98582.56;4961392;28;19945;-70
2022/04/27 08:44:27;;;;;;;;;;;;;;;12.43;60.78;98594.06;4968711;28;20353;-70
2022/04/27 08:46:55;;;;;;;;;;;;;;;12.61;59.71;98592.28;4971484;28;19937;-70
2022/04/27 08:49:23;;;;;;;;;;;;;;;12.42;59.13;98595.19;4970485;28;20376;-70
2022/04/27 08:51:51;;;;;;;;;;;;;;;12.40;60.13;98593.84;4970958;28;19926;-70
2022/04/27 08:54:19;;;;;;;;;;;;;;;12.47;60.05;98602.44;4969395;28;20057;-70
2022/04/27 08:56:47;;;;;;;;;;;;;;;12.68;60.27;98608.25;4981424;28;19926;-70
2022/04/27 08:59:15;;;;;;;;;;;;;;;12.56;60.19;98609.56;4985901;28;19937;-69
2022/04/27 09:01:44;;;;;;;;;;;;;;;12.84;59.62;98612.22;4986761;28;19958;-69
2022/04/27 09:04:13;;;;;;;;;;;;;;;12.76;59.44;98610.22;4983004;28;19957;-69
2022/04/27 09:06:41;;;;;;;;;;;;;;;12.75;58.12;98612.13;4989907;28;19929;-69
2022/04/27 09:09:36;;;;;;;;;;;;;;;13.04;59.23;98619.88;4984959;28;19926;-69
2022/04/27 09:12:08;;;;;;;;;;;;;;;13.30;57.51;98613.84;4986586;28;20257;-69
2022/04/27 09:14:36;;;;;;;;;;;;;;;13.34;56.76;98618.38;4987439;28;20419;-68
2022/04/27 09:22:51;;;;;;;;;;;;;;;13.46;56.48;98625.16;4970728;28;20025;-69
2022/04/27 09:25:30;;;;;;;;;;;;;;;13.25;57.94;98620.22;4984616;28;19926;-69
2022/04/27 09:28:19;;;;;;;;;;;;;;;13.50;57.97;98623.44;4985831;28;20032;-69
2022/04/27 09:30:48;;;;;;;;;;;;;;;13.40;55.45;98624.50;4992251;28;20396;-69
2022/04/27 09:33:30;;;;;;;;;;;;;;;13.27;56.25;98630.84;4988639;28;19957;-69
2022/04/27 09:35:58;;;;;;;;;;;;;;;13.19;56.32;98621.44;4993004;28;19941;-69
2022/04/27 09:38:50;;;;;;;;;;;;;;;13.31;57.19;98620.91;4987189;28;19930;-69
2022/04/27 09:41:35;;;;;;;;;;;;;;;13.38;57.69;98631.41;4992529;28;20020;-69
2022/04/27 09:44:03;;;;;;;;;;;;;;;13.51;55.92;98620.38;4991272;28;20712;-68
2022/04/27 09:46:31;;;;;;;;;;;;;;;13.71;56.89;98619.03;4989680;28;19937;-69
2022/04/27 09:49:11;;;;;;;;;;;;;;;13.81;56.75;98617.97;4985438;28;19969;-69
2022/04/27 09:52:00;;;;;;;;;;;;;;;13.93;55.65;98620.09;4988934;28;19938;-69
2022/04/27 09:54:29;;;;;;;;;;;;;;;13.89;56.53;98619.91;4982026;28;20044;-68
2022/04/27 09:56:57;;;;;;;;;;;;;;;14.05;55.82;98623.81;4971738;28;19926;-69
2022/04/27 09:59:27;;;;;;;;;;;;;;;14.00;55.73;98621.22;4957695;28;19934;-69
2022/04/27 10:01:55;;;;;;;;;;;;;;;13.96;54.35;98625.75;4968826;28;19938;-69
2022/04/27 10:04:25;;;;;;;;;;;;;;;13.82;54.80;98628.56;4968465;28;19942;-69
2022/04/27 10:07:19;;;;;;;;;;;;;;;14.14;55.89;98627.41;4954838;28;19940;-71
2022/04/27 10:09:47;;;;;;;;;;;;;;;14.32;54.59;98628.22;4972356;28;20141;-70
2022/04/27 10:12:15;;;;;;;;;;;;;;;14.46;53.67;98619.91;4963160;28;19930;-70
2022/04/27 10:14:43;;;;;;;;;;;;;;;14.53;54.21;98619.47;4963540;28;20021;-70
2022/04/27 10:17:11;;;;;;;;;;;;;;;14.62;52.85;98604.69;4961928;28;19926;-71
2022/04/27 10:19:45;;;;;;;;;;;;;;;14.72;51.80;98602.75;4964947;28;19941;-70
2022/04/27 10:22:26;;;;;;;;;;;;;;;14.72;52.97;98602.75;4958827;28;20197;-72
2022/04/27 10:24:55;;;;;;;;;;;;;;;14.85;54.04;98610.78;4967622;28;19926;-70
2022/04/27 10:27:23;;;;;;;;;;;;;;;14.84;51.89;98605.66;4964126;28;20465;-72
2022/04/27 10:29:52;;;;;;;;;;;;;;;14.94;49.45;98608.88;4952843;28;19961;-70
2022/04/27 10:32:36;;;;;;;;;;;;;;;14.91;49.46;98606.78;4962162;28;19935;-70
2022/04/27 10:35:25;;;;;;;;;;;;;;;14.93;49.81;98606.47;4955504;28;19982;-69
2022/04/27 10:37:57;;;;;;;;;;;;;;;14.80;49.73;98605.47;4965177;28;20403;-70
2022/04/27 10:40:31;;;;;;;;;;;;;;;14.98;49.83;98613.72;4960589;28;20060;-70
2022/04/27 10:43:25;;;;;;;;;;;;;;;14.84;48.23;98598.25;4962056;28;19933;-69
2022/04/27 10:45:54;;;;;;;;;;;;;;;14.68;49.33;98597.91;4952358;28;19957;-69
2022/04/27 10:48:22;;;;;;;;;;;;;;;14.62;49.08;98603.88;4968637;28;20640;-69
2022/04/27 10:50:57;;;;;;;;;;;;;;;14.70;48.61;98605.00;4968372;28;19934;-70
2022/04/27 10:53:27;;;;;;;;;;;;;;;14.72;49.25;98605.50;4964909;28;19937;-72
2022/04/27 10:56:03;;;;;;;;;;;;;;;14.61;47.26;98600.34;4972740;28;19926;-70
2022/04/27 10:58:34;;;;;;;;;;;;;;;14.51;46.71;98597.91;4990004;28;19930;-70
2022/04/27 11:01:27;;;;;;;;;;;;;;;14.57;46.76;98601.31;4969449;28;19925;-70
2022/04/27 11:03:59;;;;;;;;;;;;;;;14.48;47.35;98604.00;4989321;28;20299;-71
2022/04/27 11:06:30;;;;;;;;;;;;;;;14.61;49.73;98605.00;4976129;28;19976;-71
2022/04/27 11:09:13;;;;;;;;;;;;;;;14.78;48.14;98612.41;4985495;28;19932;-71
2022/04/27 11:11:52;;;;;;;;;;;;;;;14.83;48.90;98620.47;4986702;28;19929;-71
2022/04/27 11:14:28;;;;;;;;;;;;;;;14.85;48.59;98618.19;4985007;28;20001;-71
2022/04/27 11:16:56;;;;;;;;;;;;;;;14.90;46.90;98621.56;4989590;28;20276;-71
2022/04/27 11:19:33;;;;;;;;;;;;;;;14.96;47.24;98624.16;4987954;28;19937;-71
2022/04/27 11:22:10;;;;;;;;;;;;;;;14.93;46.50;98622.88;4986078;28;19977;-71
2022/04/27 11:24:44;;;;;;;;;;;;;;;14.97;46.04;98623.84;4958954;28;19937;-71
2022/04/27 11:27:12;;;;;;;;;;;;;;;15.03;47.19;98614.34;4984645;28;20373;-71
2022/04/27 11:29:40;;;;;;;;;;;;;;;15.11;45.98;98620.94;4972631;28;19926;-70
2022/04/27 11:32:08;;;;;;;;;;;;;;;15.15;46.27;98611.75;4990087;28;19926;-71
2022/04/27 11:34:36;;;;;;;;;;;;;;;15.14;47.70;98620.28;4981745;28;19989;-71
2022/04/27 11:37:23;;;;;;;;;;;;;;;15.06;47.31;98613.69;4980128;28;19972;-71
2022/04/27 11:40:12;;;;;;;;;;;;;;;14.98;49.53;98611.78;4977939;28;20425;-71
2022/04/27 11:42:44;;;;;;;;;;;;;;;15.36;46.25;98611.06;4970388;28;19976;-71
2022/04/27 11:45:12;;;;;;;;;;;;;;;15.48;46.72;98613.94;4985200;28;20094;-71
2022/04/27 11:47:40;;;;;;;;;;;;;;;15.38;45.49;98608.81;4984298;28;19933;-71
2022/04/27 11:50:09;;;;;;;;;;;;;;;15.35;42.41;98617.69;4981413;28;19926;-71
2022/04/27 11:52:37;;;;;;;;;;;;;;;15.45;43.14;98617.34;4985913;28;20318;-71
2022/04/27 11:55:09;;;;;;;;;;;;;;;15.42;44.51;98627.00;4981160;28;19926;-71
2022/04/27 11:57:39;;;;;;;;;;;;;;;15.36;43.42;98614.63;4966832;28;19934;-71
2022/04/27 12:00:07;;;;;;;;;;;;;;;15.42;42.19;98618.78;4987441;28;19933;-71
2022/04/27 12:02:41;;;;;;;;;;;;;;;15.55;45.25;98619.69;4987763;28;19926;-71
2022/04/27 12:05:10;;;;;;;;;;;;;;;15.40;43.80;98623.00;4983897;28;20378;-71
2022/04/27 12:07:38;;;;;;;;;;;;;;;15.55;43.38;98619.69;4981994;28;19932;-71
2022/04/27 12:10:31;;;;;;;;;;;;;;;15.59;43.15;98619.88;4981079;28;19934;-72
2022/04/27 12:13:00;;;;;;;;;;;;;;;15.68;41.30;98620.69;4981529;28;19937;-72
2022/04/27 12:15:28;;;;;;;;;;;;;;;15.80;43.34;98614.50;4977802;28;19976;-71
2022/04/27 12:17:57;;;;;;;;;;;;;;;15.75;40.37;98622.91;4980120;28;19933;-72
2022/04/27 12:20:50;;;;;;;;;;;;;;;15.83;39.83;98625.63;4981649;28;20025;-71
2022/04/27 12:23:19;;;;;;;;;;;;;;;15.71;39.66;98622.75;4980352;28;19945;-71
2022/04/27 12:26:13;;;;;;;;;;;;;;;15.77;39.74;98626.94;4978109;28;20284;-71
2022/04/27 12:28:45;;;;;;;;;;;;;;;15.70;40.22;98621.16;4981626;28;20025;-71
2022/04/27 12:31:14;;;;;;;;;;;;;;;15.81;41.43;98627.06;4982872;28;20082;-71
2022/04/27 12:33:43;;;;;;;;;;;;;;;15.81;40.67;98624.31;4980776;28;19930;-71
2022/04/27 12:39:20;;;;;;;;;;;;;;;15.80;41.32;98615.31;4983549;28;20619;-71
2022/04/27 12:41:49;;;;;;;;;;;;;;;15.98;42.11;98616.06;4975665;28;19926;-71
2022/04/27 12:44:19;;;;;;;;;;;;;;;16.02;42.44;98619.72;4980776;28;19930;-72
2022/04/27 12:46:57;;;;;;;;;;;;;;;16.00;40.18;98616.53;4980101;28;19980;-72
2022/04/27 12:49:25;;;;;;;;;;;;;;;16.00;38.09;98613.78;4983644;28;20024;-80
2022/04/27 12:51:54;;;;;;;;;;;;;;;15.98;40.64;98613.31;4969450;28;20019;-71
2022/04/27 12:54:32;;;;;;;;;;;;;;;15.92;38.61;98617.34;4981101;28;19930;-72
2022/04/27 12:57:00;;;;;;;;;;;;;;;15.90;39.68;98620.44;4967833;28;19926;-71
2022/04/27 12:59:29;;;;;;;;;;;;;;;15.93;39.00;98613.50;4960828;28;19926;-78
2022/04/27 13:02:03;;;;;;;;;;;;;;;15.73;39.32;98617.75;4951892;28;20067;-71
2022/04/27 13:04:32;;;;;;;;;;;;;;;15.70;37.63;98611.00;4957534;28;20377;-71
2022/04/27 13:07:25;;;;;;;;;;;;;;;15.65;38.01;98613.09;4959505;28;19926;-71
2022/04/27 13:12:40;;;;;;;;;;;;;;;15.39;38.89;98622.19;4961907;28;19934;-70
2022/04/27 13:15:09;;;;;;;;;;;;;;;15.31;38.93;98616.72;4961782;28;19965;-71
2022/04/27 13:18:01;;;;;;;;;;;;;;;15.37;40.21;98612.69;4928922;28;19934;-72
2022/04/27 13:21:18;;;;;;;;;;;;;;;15.47;40.13;98612.34;4956870;28;19980;-78
2022/04/27 13:26:39;;;;;;;;;;;;;;;15.48;39.56;98616.66;4955364;28;20348;-71
2022/04/27 13:29:07;;;;;;;;;;;;;;;15.50;40.32;98611.69;4945274;28;20005;-71
2022/04/27 13:31:37;;;;;;;;;;;;;;;15.46;39.63;98611.53;4956307;28;19934;-71
2022/04/27 13:34:05;;;;;;;;;;;;;;;15.55;39.56;98611.50;4959792;28;19926;-71
2022/04/27 13:36:33;;;;;;;;;;;;;;;15.52;40.73;98614.91;4956538;28;19958;-71
2022/04/27 13:39:09;;;;;;;;;;;;;;;15.58;39.66;98605.38;4960372;28;19926;-77
2022/04/27 13:41:38;;;;;;;;;;;;;;;15.64;40.30;98612.31;4965486;28;20377;-79
2022/04/27 13:44:06;;;;;;;;;;;;;;;15.70;40.09;98616.47;4959391;28;19927;-78
2022/04/27 13:46:34;;;;;;;;;;;;;;;15.87;40.95;98609.31;4952532;28;20021;-78
2022/04/27 13:49:04;;;;;;;;;;;;;;;15.91;40.45;98611.06;4960291;28;19926;-79
2022/04/27 13:51:32;;;;;;;;;;;;;;;15.99;41.48;98609.44;4958704;28;20237;-79
2022/04/27 13:54:01;;;;;;;;;;;;;;;16.13;42.71;98617.41;4962778;28;19933;-79
2022/04/27 13:56:29;;;;;;;;;;;;;;;16.07;41.08;98613.25;4967756;28;20293;-79
2022/04/27 13:58:57;;;;;;;;;;;;;;;16.05;39.00;98618.28;4960362;28;19989;-81
2022/04/27 14:01:25;;;;;;;;;;;;;;;15.84;39.40;98619.00;4961128;28;19930;-79
2022/04/27 14:03:53;;;;;;;;;;;;;;;15.87;39.64;98615.63;4972429;28;19930;-81
2022/04/27 14:06:23;;;;;;;;;;;;;;;15.80;40.44;98623.53;4965008;28;19933;-80